sensor_id;sensor_type;location;lat;lon;timestamp;P1;durP1;ratioP1;P2;durP2;ratioP2
73266;SDS011;61495;53.400;7.608;2022-07-22T00:01:02;3.67;;;1.30;;
73266;SDS011;61495;53.400;7.608;2022-07-22T00:03:28;3.13;;;0.98;;
73266;SDS011;61495;53.400;7.608;2022-07-22T00:05:53;7.07;;;1.33;;
73266;SDS011;61495;53.400;7.608;2022-07-22T00:08:19;4.07;;;1.50;;
73266;SDS011;61495;53.400;7.608;2022-07-22T00:10:44;5.00;;;1.38;;
73266;SDS011;61495;53.400;7.608;2022-07-22T00:13:10;8.07;;;1.65;;
73266;SDS011;61495;53.400;7.608;2022-07-22T00:15:35;4.43;;;1.42;;
73266;SDS011;61495;53.400;7.608;2022-07-22T00:18:00;4.85;;;1.83;;
73266;SDS011;61495;53.400;7.608;2022-07-22T00:20:26;6.88;;;1.90;;
73266;SDS011;61495;53.400;7.608;2022-07-22T00:22:51;4.57;;;1.70;;
73266;SDS011;61495;53.400;7.608;2022-07-22T00:25:17;4.88;;;1.20;;
73266;SDS011;61495;53.400;7.608;2022-07-22T00:27:42;8.27;;;1.58;;
73266;SDS011;61495;53.400;7.608;2022-07-22T00:30:08;5.90;;;1.63;;
73266;SDS011;61495;53.400;7.608;2022-07-22T00:32:33;7.13;;;1.35;;
73266;SDS011;61495;53.400;7.608;2022-07-22T00:34:59;2.53;;;1.20;;
73266;SDS011;61495;53.400;7.608;2022-07-22T00:37:24;4.63;;;1.55;;
73266;SDS011;61495;53.400;7.608;2022-07-22T00:39:50;5.20;;;1.42;;
73266;SDS011;61495;53.400;7.608;2022-07-22T00:42:15;3.03;;;1.00;;
73266;SDS011;61495;53.400;7.608;2022-07-22T00:44:40;5.40;;;1.30;;
73266;SDS011;61495;53.400;7.608;2022-07-22T00:47:06;3.47;;;1.27;;
73266;SDS011;61495;53.400;7.608;2022-07-22T00:49:31;3.92;;;1.20;;
73266;SDS011;61495;53.400;7.608;2022-07-22T00:51:57;4.13;;;1.33;;
73266;SDS011;61495;53.400;7.608;2022-07-22T00:54:22;4.72;;;1.40;;
73266;SDS011;61495;53.400;7.608;2022-07-22T00:56:48;3.83;;;0.95;;
73266;SDS011;61495;53.400;7.608;2022-07-22T00:59:13;4.95;;;1.20;;
73266;SDS011;61495;53.400;7.608;2022-07-22T01:01:39;4.40;;;1.33;;
73266;SDS011;61495;53.400;7.608;2022-07-22T01:04:05;3.97;;;1.40;;
73266;SDS011;61495;53.400;7.608;2022-07-22T01:06:31;5.88;;;1.48;;
73266;SDS011;61495;53.400;7.608;2022-07-22T01:08:56;5.35;;;1.80;;
73266;SDS011;61495;53.400;7.608;2022-07-22T01:11:22;3.53;;;1.10;;
73266;SDS011;61495;53.400;7.608;2022-07-22T01:13:48;5.82;;;1.50;;
73266;SDS011;61495;53.400;7.608;2022-07-22T01:16:14;3.83;;;1.30;;
73266;SDS011;61495;53.400;7.608;2022-07-22T01:18:41;5.95;;;1.55;;
73266;SDS011;61495;53.400;7.608;2022-07-22T01:21:08;3.20;;;1.50;;
73266;SDS011;61495;53.400;7.608;2022-07-22T01:23:34;4.82;;;1.92;;
73266;SDS011;61495;53.400;7.608;2022-07-22T01:26:00;5.50;;;2.17;;
73266;SDS011;61495;53.400;7.608;2022-07-22T01:28:27;4.32;;;1.40;;
73266;SDS011;61495;53.400;7.608;2022-07-22T01:30:52;5.82;;;1.58;;
73266;SDS011;61495;53.400;7.608;2022-07-22T01:33:19;5.38;;;1.10;;
73266;SDS011;61495;53.400;7.608;2022-07-22T01:35:45;4.75;;;1.02;;
73266;SDS011;61495;53.400;7.608;2022-07-22T01:38:11;5.25;;;1.27;;
73266;SDS011;61495;53.400;7.608;2022-07-22T01:40:38;4.00;;;1.42;;
73266;SDS011;61495;53.400;7.608;2022-07-22T01:43:04;7.97;;;1.67;;
73266;SDS011;61495;53.400;7.608;2022-07-22T01:45:30;5.95;;;1.55;;
73266;SDS011;61495;53.400;7.608;2022-07-22T01:47:55;7.88;;;1.50;;
73266;SDS011;61495;53.400;7.608;2022-07-22T01:50:21;5.22;;;1.55;;
73266;SDS011;61495;53.400;7.608;2022-07-22T01:52:46;6.18;;;2.22;;
73266;SDS011;61495;53.400;7.608;2022-07-22T01:55:12;4.85;;;1.50;;
73266;SDS011;61495;53.400;7.608;2022-07-22T01:57:37;4.63;;;1.88;;
73266;SDS011;61495;53.400;7.608;2022-07-22T02:00:04;3.95;;;1.27;;
73266;SDS011;61495;53.400;7.608;2022-07-22T02:02:32;7.88;;;1.92;;
73266;SDS011;61495;53.400;7.608;2022-07-22T02:04:57;5.97;;;1.60;;
73266;SDS011;61495;53.400;7.608;2022-07-22T02:07:23;6.13;;;1.83;;
73266;SDS011;61495;53.400;7.608;2022-07-22T02:09:50;5.35;;;1.55;;
73266;SDS011;61495;53.400;7.608;2022-07-22T02:12:16;6.05;;;2.50;;
73266;SDS011;61495;53.400;7.608;2022-07-22T02:14:42;5.15;;;1.42;;
73266;SDS011;61495;53.400;7.608;2022-07-22T02:17:07;8.38;;;2.10;;
73266;SDS011;61495;53.400;7.608;2022-07-22T02:19:32;8.27;;;1.98;;
73266;SDS011;61495;53.400;7.608;2022-07-22T02:21:58;6.25;;;1.75;;
73266;SDS011;61495;53.400;7.608;2022-07-22T02:24:23;4.90;;;1.80;;
73266;SDS011;61495;53.400;7.608;2022-07-22T02:26:48;5.95;;;1.70;;
73266;SDS011;61495;53.400;7.608;2022-07-22T02:29:14;5.30;;;1.67;;
73266;SDS011;61495;53.400;7.608;2022-07-22T02:31:39;6.07;;;2.08;;
73266;SDS011;61495;53.400;7.608;2022-07-22T02:34:05;5.20;;;1.80;;
73266;SDS011;61495;53.400;7.608;2022-07-22T02:36:30;6.20;;;1.90;;
73266;SDS011;61495;53.400;7.608;2022-07-22T02:38:55;8.02;;;1.90;;
73266;SDS011;61495;53.400;7.608;2022-07-22T02:41:21;4.28;;;1.58;;
73266;SDS011;61495;53.400;7.608;2022-07-22T02:43:46;8.43;;;2.08;;
73266;SDS011;61495;53.400;7.608;2022-07-22T02:46:11;9.07;;;2.22;;
73266;SDS011;61495;53.400;7.608;2022-07-22T02:48:37;8.35;;;2.65;;
73266;SDS011;61495;53.400;7.608;2022-07-22T02:51:02;7.22;;;1.85;;
73266;SDS011;61495;53.400;7.608;2022-07-22T02:53:28;7.55;;;2.90;;
73266;SDS011;61495;53.400;7.608;2022-07-22T02:55:54;6.85;;;2.10;;
73266;SDS011;61495;53.400;7.608;2022-07-22T02:58:19;8.15;;;2.28;;
73266;SDS011;61495;53.400;7.608;2022-07-22T03:00:44;9.02;;;2.10;;
73266;SDS011;61495;53.400;7.608;2022-07-22T03:03:10;7.07;;;2.75;;
73266;SDS011;61495;53.400;7.608;2022-07-22T03:05:35;5.88;;;1.90;;
73266;SDS011;61495;53.400;7.608;2022-07-22T03:08:01;7.10;;;2.55;;
73266;SDS011;61495;53.400;7.608;2022-07-22T03:10:26;9.02;;;2.33;;
73266;SDS011;61495;53.400;7.608;2022-07-22T03:12:52;6.60;;;2.10;;
73266;SDS011;61495;53.400;7.608;2022-07-22T03:15:17;7.85;;;2.28;;
73266;SDS011;61495;53.400;7.608;2022-07-22T03:17:43;7.00;;;2.20;;
73266;SDS011;61495;53.400;7.608;2022-07-22T03:20:09;6.43;;;1.55;;
73266;SDS011;61495;53.400;7.608;2022-07-22T03:22:35;7.13;;;1.90;;
73266;SDS011;61495;53.400;7.608;2022-07-22T03:25:01;5.70;;;1.92;;
73266;SDS011;61495;53.400;7.608;2022-07-22T03:27:27;5.70;;;1.83;;
73266;SDS011;61495;53.400;7.608;2022-07-22T03:29:53;8.35;;;2.83;;
73266;SDS011;61495;53.400;7.608;2022-07-22T03:32:18;8.18;;;2.13;;
73266;SDS011;61495;53.400;7.608;2022-07-22T03:34:44;5.40;;;2.10;;
73266;SDS011;61495;53.400;7.608;2022-07-22T03:37:09;5.78;;;2.25;;
73266;SDS011;61495;53.400;7.608;2022-07-22T03:39:35;6.57;;;2.15;;
73266;SDS011;61495;53.400;7.608;2022-07-22T03:42:00;4.88;;;2.17;;
73266;SDS011;61495;53.400;7.608;2022-07-22T03:44:26;5.18;;;2.15;;
73266;SDS011;61495;53.400;7.608;2022-07-22T03:46:51;8.73;;;2.05;;
73266;SDS011;61495;53.400;7.608;2022-07-22T03:49:17;4.93;;;2.10;;
73266;SDS011;61495;53.400;7.608;2022-07-22T03:51:42;4.60;;;2.13;;
73266;SDS011;61495;53.400;7.608;2022-07-22T03:54:08;5.65;;;1.98;;
73266;SDS011;61495;53.400;7.608;2022-07-22T03:56:33;4.32;;;1.73;;
73266;SDS011;61495;53.400;7.608;2022-07-22T03:58:59;5.82;;;1.85;;
73266;SDS011;61495;53.400;7.608;2022-07-22T04:01:24;5.85;;;2.30;;
73266;SDS011;61495;53.400;7.608;2022-07-22T04:03:49;6.95;;;2.25;;
73266;SDS011;61495;53.400;7.608;2022-07-22T04:06:15;6.57;;;2.35;;
73266;SDS011;61495;53.400;7.608;2022-07-22T04:08:41;5.57;;;2.13;;
73266;SDS011;61495;53.400;7.608;2022-07-22T04:11:07;5.43;;;1.92;;
73266;SDS011;61495;53.400;7.608;2022-07-22T04:13:32;6.38;;;2.17;;
73266;SDS011;61495;53.400;7.608;2022-07-22T04:15:57;4.95;;;1.85;;
73266;SDS011;61495;53.400;7.608;2022-07-22T04:18:23;9.02;;;2.63;;
73266;SDS011;61495;53.400;7.608;2022-07-22T04:20:49;7.13;;;2.05;;
73266;SDS011;61495;53.400;7.608;2022-07-22T04:23:14;6.05;;;1.90;;
73266;SDS011;61495;53.400;7.608;2022-07-22T04:25:40;9.25;;;2.70;;
73266;SDS011;61495;53.400;7.608;2022-07-22T04:28:05;8.25;;;2.05;;
73266;SDS011;61495;53.400;7.608;2022-07-22T04:30:31;5.47;;;2.80;;
73266;SDS011;61495;53.400;7.608;2022-07-22T04:32:56;6.53;;;2.40;;
73266;SDS011;61495;53.400;7.608;2022-07-22T04:35:23;11.70;;;2.30;;
73266;SDS011;61495;53.400;7.608;2022-07-22T04:37:48;5.28;;;2.10;;
73266;SDS011;61495;53.400;7.608;2022-07-22T04:40:14;5.18;;;2.42;;
73266;SDS011;61495;53.400;7.608;2022-07-22T04:42:39;5.50;;;1.75;;
73266;SDS011;61495;53.400;7.608;2022-07-22T04:45:04;5.18;;;2.63;;
73266;SDS011;61495;53.400;7.608;2022-07-22T04:47:30;6.53;;;2.10;;
73266;SDS011;61495;53.400;7.608;2022-07-22T04:49:55;6.85;;;2.47;;
73266;SDS011;61495;53.400;7.608;2022-07-22T04:52:21;6.85;;;2.35;;
73266;SDS011;61495;53.400;7.608;2022-07-22T04:54:46;3.97;;;2.03;;
73266;SDS011;61495;53.400;7.608;2022-07-22T04:57:12;6.10;;;1.92;;
73266;SDS011;61495;53.400;7.608;2022-07-22T04:59:37;5.05;;;2.10;;
73266;SDS011;61495;53.400;7.608;2022-07-22T05:02:03;4.85;;;2.00;;
73266;SDS011;61495;53.400;7.608;2022-07-22T05:04:28;5.28;;;1.83;;
73266;SDS011;61495;53.400;7.608;2022-07-22T05:06:54;8.68;;;2.22;;
73266;SDS011;61495;53.400;7.608;2022-07-22T05:09:19;3.97;;;1.70;;
73266;SDS011;61495;53.400;7.608;2022-07-22T05:11:45;13.52;;;2.10;;
73266;SDS011;61495;53.400;7.608;2022-07-22T05:14:10;5.78;;;1.80;;
73266;SDS011;61495;53.400;7.608;2022-07-22T05:16:36;4.93;;;1.88;;
73266;SDS011;61495;53.400;7.608;2022-07-22T05:19:03;7.68;;;2.40;;
73266;SDS011;61495;53.400;7.608;2022-07-22T05:21:29;5.63;;;2.03;;
73266;SDS011;61495;53.400;7.608;2022-07-22T05:23:58;7.22;;;1.77;;
73266;SDS011;61495;53.400;7.608;2022-07-22T05:26:31;8.57;;;2.65;;
73266;SDS011;61495;53.400;7.608;2022-07-22T05:28:58;4.30;;;1.90;;
73266;SDS011;61495;53.400;7.608;2022-07-22T05:31:24;5.38;;;1.92;;
73266;SDS011;61495;53.400;7.608;2022-07-22T05:33:49;6.70;;;2.47;;
73266;SDS011;61495;53.400;7.608;2022-07-22T05:36:14;4.93;;;2.10;;
73266;SDS011;61495;53.400;7.608;2022-07-22T05:38:40;4.43;;;1.83;;
73266;SDS011;61495;53.400;7.608;2022-07-22T05:41:05;6.18;;;2.20;;
73266;SDS011;61495;53.400;7.608;2022-07-22T05:43:31;8.13;;;2.20;;
73266;SDS011;61495;53.400;7.608;2022-07-22T05:45:56;5.63;;;2.25;;
73266;SDS011;61495;53.400;7.608;2022-07-22T05:48:22;5.38;;;1.73;;
73266;SDS011;61495;53.400;7.608;2022-07-22T05:50:47;6.05;;;2.17;;
73266;SDS011;61495;53.400;7.608;2022-07-22T05:53:13;4.45;;;1.80;;
73266;SDS011;61495;53.400;7.608;2022-07-22T05:55:38;6.55;;;1.88;;
73266;SDS011;61495;53.400;7.608;2022-07-22T05:58:04;5.35;;;1.80;;
73266;SDS011;61495;53.400;7.608;2022-07-22T06:00:29;5.95;;;2.17;;
73266;SDS011;61495;53.400;7.608;2022-07-22T06:02:55;4.10;;;1.60;;
73266;SDS011;61495;53.400;7.608;2022-07-22T06:05:20;5.45;;;1.42;;
73266;SDS011;61495;53.400;7.608;2022-07-22T06:07:46;7.03;;;1.63;;
73266;SDS011;61495;53.400;7.608;2022-07-22T06:10:11;4.97;;;2.08;;
73266;SDS011;61495;53.400;7.608;2022-07-22T06:12:37;7.85;;;2.15;;
73266;SDS011;61495;53.400;7.608;2022-07-22T06:15:02;5.90;;;1.83;;
73266;SDS011;61495;53.400;7.608;2022-07-22T06:17:28;5.28;;;2.17;;
73266;SDS011;61495;53.400;7.608;2022-07-22T06:19:54;6.25;;;1.83;;
73266;SDS011;61495;53.400;7.608;2022-07-22T06:22:19;5.88;;;2.00;;
73266;SDS011;61495;53.400;7.608;2022-07-22T06:24:44;4.82;;;1.88;;
73266;SDS011;61495;53.400;7.608;2022-07-22T06:27:10;5.30;;;1.70;;
73266;SDS011;61495;53.400;7.608;2022-07-22T06:29:36;6.35;;;2.10;;
73266;SDS011;61495;53.400;7.608;2022-07-22T06:32:01;689.20;;;198.20;;
73266;SDS011;61495;53.400;7.608;2022-07-22T06:34:27;980.58;;;322.08;;
73266;SDS011;61495;53.400;7.608;2022-07-22T06:36:52;504.20;;;136.45;;
73266;SDS011;61495;53.400;7.608;2022-07-22T06:39:17;345.67;;;90.18;;
73266;SDS011;61495;53.400;7.608;2022-07-22T06:41:43;171.52;;;44.72;;
73266;SDS011;61495;53.400;7.608;2022-07-22T06:44:09;50.40;;;15.32;;
73266;SDS011;61495;53.400;7.608;2022-07-22T06:46:34;57.35;;;16.27;;
73266;SDS011;61495;53.400;7.608;2022-07-22T06:48:59;21.77;;;6.25;;
73266;SDS011;61495;53.400;7.608;2022-07-22T06:51:25;12.25;;;5.43;;
73266;SDS011;61495;53.400;7.608;2022-07-22T06:53:50;9.30;;;2.92;;
73266;SDS011;61495;53.400;7.608;2022-07-22T06:56:16;6.95;;;2.25;;
73266;SDS011;61495;53.400;7.608;2022-07-22T06:58:41;6.03;;;1.90;;
73266;SDS011;61495;53.400;7.608;2022-07-22T07:01:06;5.55;;;1.73;;
73266;SDS011;61495;53.400;7.608;2022-07-22T07:03:32;4.60;;;1.60;;
73266;SDS011;61495;53.400;7.608;2022-07-22T07:05:57;5.00;;;1.75;;
73266;SDS011;61495;53.400;7.608;2022-07-22T07:08:23;3.67;;;1.55;;
73266;SDS011;61495;53.400;7.608;2022-07-22T07:10:48;5.78;;;2.40;;
73266;SDS011;61495;53.400;7.608;2022-07-22T07:13:13;4.55;;;1.80;;
73266;SDS011;61495;53.400;7.608;2022-07-22T07:15:39;3.35;;;1.33;;
73266;SDS011;61495;53.400;7.608;2022-07-22T07:18:04;5.43;;;1.92;;
73266;SDS011;61495;53.400;7.608;2022-07-22T07:20:30;5.00;;;1.80;;
73266;SDS011;61495;53.400;7.608;2022-07-22T07:22:55;4.20;;;1.70;;
73266;SDS011;61495;53.400;7.608;2022-07-22T07:25:24;8.57;;;2.08;;
73266;SDS011;61495;53.400;7.608;2022-07-22T07:27:50;5.38;;;1.65;;
73266;SDS011;61495;53.400;7.608;2022-07-22T07:30:16;4.28;;;1.83;;
73266;SDS011;61495;53.400;7.608;2022-07-22T07:32:41;4.85;;;1.33;;
73266;SDS011;61495;53.400;7.608;2022-07-22T07:35:09;5.40;;;1.80;;
73266;SDS011;61495;53.400;7.608;2022-07-22T07:37:35;5.93;;;1.52;;
73266;SDS011;61495;53.400;7.608;2022-07-22T07:40:01;6.25;;;1.90;;
73266;SDS011;61495;53.400;7.608;2022-07-22T07:42:27;8.05;;;1.90;;
73266;SDS011;61495;53.400;7.608;2022-07-22T07:44:52;3.85;;;1.25;;
73266;SDS011;61495;53.400;7.608;2022-07-22T07:47:18;6.63;;;1.77;;
73266;SDS011;61495;53.400;7.608;2022-07-22T07:49:46;4.57;;;1.20;;
73266;SDS011;61495;53.400;7.608;2022-07-22T07:52:12;3.45;;;1.17;;
73266;SDS011;61495;53.400;7.608;2022-07-22T07:54:41;5.85;;;1.60;;
73266;SDS011;61495;53.400;7.608;2022-07-22T07:57:08;6.40;;;1.55;;
73266;SDS011;61495;53.400;7.608;2022-07-22T07:59:35;4.25;;;1.35;;
73266;SDS011;61495;53.400;7.608;2022-07-22T08:02:04;4.15;;;1.50;;
73266;SDS011;61495;53.400;7.608;2022-07-22T08:04:30;3.28;;;1.50;;
73266;SDS011;61495;53.400;7.608;2022-07-22T08:06:56;5.97;;;1.70;;
73266;SDS011;61495;53.400;7.608;2022-07-22T08:09:22;3.88;;;1.38;;
73266;SDS011;61495;53.400;7.608;2022-07-22T08:11:48;5.22;;;1.20;;
73266;SDS011;61495;53.400;7.608;2022-07-22T08:14:13;7.63;;;1.35;;
73266;SDS011;61495;53.400;7.608;2022-07-22T08:16:39;4.03;;;1.77;;
73266;SDS011;61495;53.400;7.608;2022-07-22T08:19:06;2.80;;;1.33;;
73266;SDS011;61495;53.400;7.608;2022-07-22T08:21:31;4.85;;;1.60;;
73266;SDS011;61495;53.400;7.608;2022-07-22T08:23:57;4.60;;;1.10;;
73266;SDS011;61495;53.400;7.608;2022-07-22T08:26:23;3.03;;;1.10;;
73266;SDS011;61495;53.400;7.608;2022-07-22T08:28:50;7.15;;;2.25;;
73266;SDS011;61495;53.400;7.608;2022-07-22T08:31:16;4.18;;;1.45;;
73266;SDS011;61495;53.400;7.608;2022-07-22T08:33:42;4.00;;;1.67;;
73266;SDS011;61495;53.400;7.608;2022-07-22T08:36:08;5.93;;;1.50;;
73266;SDS011;61495;53.400;7.608;2022-07-22T08:38:34;6.72;;;1.40;;
73266;SDS011;61495;53.400;7.608;2022-07-22T08:41:10;4.63;;;1.58;;
73266;SDS011;61495;53.400;7.608;2022-07-22T08:43:36;4.22;;;1.55;;
73266;SDS011;61495;53.400;7.608;2022-07-22T08:46:07;5.15;;;1.23;;
73266;SDS011;61495;53.400;7.608;2022-07-22T08:48:38;5.85;;;1.65;;
73266;SDS011;61495;53.400;7.608;2022-07-22T08:51:04;5.53;;;1.17;;
73266;SDS011;61495;53.400;7.608;2022-07-22T08:53:30;6.55;;;1.38;;
73266;SDS011;61495;53.400;7.608;2022-07-22T08:55:56;5.03;;;2.10;;
73266;SDS011;61495;53.400;7.608;2022-07-22T08:58:27;6.28;;;1.60;;
73266;SDS011;61495;53.400;7.608;2022-07-22T09:01:12;3.35;;;1.40;;
73266;SDS011;61495;53.400;7.608;2022-07-22T09:03:47;7.57;;;2.08;;
73266;SDS011;61495;53.400;7.608;2022-07-22T09:06:14;3.38;;;1.30;;
73266;SDS011;61495;53.400;7.608;2022-07-22T09:08:57;5.03;;;1.77;;
73266;SDS011;61495;53.400;7.608;2022-07-22T09:11:24;6.25;;;1.40;;
73266;SDS011;61495;53.400;7.608;2022-07-22T09:13:53;4.68;;;1.63;;
73266;SDS011;61495;53.400;7.608;2022-07-22T09:16:37;4.47;;;1.27;;
73266;SDS011;61495;53.400;7.608;2022-07-22T09:19:03;3.08;;;1.40;;
73266;SDS011;61495;53.400;7.608;2022-07-22T09:21:29;8.27;;;1.60;;
73266;SDS011;61495;53.400;7.608;2022-07-22T09:23:55;5.00;;;1.40;;
73266;SDS011;61495;53.400;7.608;2022-07-22T09:26:30;4.72;;;1.65;;
73266;SDS011;61495;53.400;7.608;2022-07-22T09:28:57;6.03;;;1.83;;
73266;SDS011;61495;53.400;7.608;2022-07-22T09:31:32;4.68;;;1.50;;
73266;SDS011;61495;53.400;7.608;2022-07-22T09:33:59;5.10;;;1.17;;
73266;SDS011;61495;53.400;7.608;2022-07-22T09:36:26;3.83;;;1.50;;
73266;SDS011;61495;53.400;7.608;2022-07-22T09:38:51;3.60;;;1.52;;
73266;SDS011;61495;53.400;7.608;2022-07-22T09:41:17;4.85;;;1.00;;
73266;SDS011;61495;53.400;7.608;2022-07-22T09:43:43;6.53;;;2.28;;
73266;SDS011;61495;53.400;7.608;2022-07-22T09:46:09;3.80;;;1.60;;
73266;SDS011;61495;53.400;7.608;2022-07-22T09:48:35;4.35;;;1.13;;
73266;SDS011;61495;53.400;7.608;2022-07-22T09:51:02;5.45;;;1.60;;
73266;SDS011;61495;53.400;7.608;2022-07-22T09:53:28;6.03;;;1.65;;
73266;SDS011;61495;53.400;7.608;2022-07-22T09:55:55;8.57;;;1.70;;
73266;SDS011;61495;53.400;7.608;2022-07-22T09:58:27;5.53;;;1.30;;
73266;SDS011;61495;53.400;7.608;2022-07-22T10:00:54;4.18;;;1.23;;
73266;SDS011;61495;53.400;7.608;2022-07-22T10:03:29;2.60;;;1.13;;
73266;SDS011;61495;53.400;7.608;2022-07-22T10:05:57;4.65;;;1.30;;
73266;SDS011;61495;53.400;7.608;2022-07-22T10:08:23;4.93;;;1.35;;
73266;SDS011;61495;53.400;7.608;2022-07-22T10:10:50;4.60;;;1.50;;
73266;SDS011;61495;53.400;7.608;2022-07-22T10:13:17;5.82;;;1.23;;
73266;SDS011;61495;53.400;7.608;2022-07-22T10:15:43;4.00;;;1.15;;
73266;SDS011;61495;53.400;7.608;2022-07-22T10:18:14;4.93;;;1.13;;
73266;SDS011;61495;53.400;7.608;2022-07-22T10:20:41;5.18;;;1.30;;
73266;SDS011;61495;53.400;7.608;2022-07-22T10:23:08;4.40;;;1.27;;
73266;SDS011;61495;53.400;7.608;2022-07-22T10:25:54;4.15;;;1.35;;
73266;SDS011;61495;53.400;7.608;2022-07-22T10:28:27;3.72;;;1.20;;
73266;SDS011;61495;53.400;7.608;2022-07-22T10:31:16;6.53;;;1.35;;
73266;SDS011;61495;53.400;7.608;2022-07-22T10:33:50;7.75;;;1.33;;
73266;SDS011;61495;53.400;7.608;2022-07-22T10:36:36;2.85;;;1.00;;
73266;SDS011;61495;53.400;7.608;2022-07-22T10:39:11;3.70;;;1.25;;
73266;SDS011;61495;53.400;7.608;2022-07-22T10:41:41;6.15;;;1.63;;
73266;SDS011;61495;53.400;7.608;2022-07-22T10:44:10;4.10;;;1.30;;
73266;SDS011;61495;53.400;7.608;2022-07-22T10:46:54;3.50;;;1.13;;
73266;SDS011;61495;53.400;7.608;2022-07-22T10:49:24;2.65;;;1.05;;
73266;SDS011;61495;53.400;7.608;2022-07-22T10:52:09;4.50;;;1.42;;
73266;SDS011;61495;53.400;7.608;2022-07-22T10:57:45;3.05;;;1.20;;
73266;SDS011;61495;53.400;7.608;2022-07-22T11:00:11;4.28;;;1.30;;
73266;SDS011;61495;53.400;7.608;2022-07-22T11:02:37;5.47;;;1.40;;
73266;SDS011;61495;53.400;7.608;2022-07-22T11:05:03;7.32;;;1.50;;
73266;SDS011;61495;53.400;7.608;2022-07-22T11:07:29;5.03;;;1.77;;
73266;SDS011;61495;53.400;7.608;2022-07-22T11:10:07;4.30;;;1.25;;
73266;SDS011;61495;53.400;7.608;2022-07-22T11:12:37;4.22;;;1.20;;
73266;SDS011;61495;53.400;7.608;2022-07-22T11:15:03;2.70;;;1.40;;
73266;SDS011;61495;53.400;7.608;2022-07-22T11:17:31;5.97;;;1.27;;
73266;SDS011;61495;53.400;7.608;2022-07-22T11:19:59;3.40;;;1.27;;
73266;SDS011;61495;53.400;7.608;2022-07-22T11:22:32;4.75;;;1.35;;
73266;SDS011;61495;53.400;7.608;2022-07-22T11:24:58;6.03;;;1.17;;
73266;SDS011;61495;53.400;7.608;2022-07-22T11:27:26;3.22;;;1.33;;
73266;SDS011;61495;53.400;7.608;2022-07-22T11:29:52;4.18;;;1.38;;
73266;SDS011;61495;53.400;7.608;2022-07-22T11:32:21;5.03;;;1.25;;
73266;SDS011;61495;53.400;7.608;2022-07-22T11:34:48;3.38;;;1.40;;
73266;SDS011;61495;53.400;7.608;2022-07-22T11:37:14;2.65;;;1.05;;
73266;SDS011;61495;53.400;7.608;2022-07-22T11:39:41;3.90;;;1.73;;
73266;SDS011;61495;53.400;7.608;2022-07-22T11:42:08;4.10;;;1.30;;
73266;SDS011;61495;53.400;7.608;2022-07-22T11:44:35;2.83;;;1.05;;
73266;SDS011;61495;53.400;7.608;2022-07-22T11:47:02;3.20;;;1.13;;
73266;SDS011;61495;53.400;7.608;2022-07-22T11:49:30;3.22;;;1.05;;
73266;SDS011;61495;53.400;7.608;2022-07-22T11:52:02;4.25;;;1.42;;
73266;SDS011;61495;53.400;7.608;2022-07-22T11:54:29;4.22;;;1.25;;
73266;SDS011;61495;53.400;7.608;2022-07-22T11:56:54;2.80;;;0.90;;
73266;SDS011;61495;53.400;7.608;2022-07-22T11:59:21;4.00;;;0.90;;
73266;SDS011;61495;53.400;7.608;2022-07-22T12:04:54;3.58;;;1.00;;
73266;SDS011;61495;53.400;7.608;2022-07-22T12:07:20;5.35;;;1.30;;
73266;SDS011;61495;53.400;7.608;2022-07-22T12:09:45;3.78;;;1.10;;
73266;SDS011;61495;53.400;7.608;2022-07-22T12:12:11;4.45;;;1.42;;
73266;SDS011;61495;53.400;7.608;2022-07-22T12:14:36;3.63;;;1.50;;
73266;SDS011;61495;53.400;7.608;2022-07-22T12:17:10;3.13;;;1.00;;
73266;SDS011;61495;53.400;7.608;2022-07-22T12:19:36;2.95;;;0.73;;
73266;SDS011;61495;53.400;7.608;2022-07-22T12:22:04;3.40;;;1.30;;
73266;SDS011;61495;53.400;7.608;2022-07-22T12:24:35;2.65;;;1.02;;
73266;SDS011;61495;53.400;7.608;2022-07-22T12:32:01;2.93;;;1.00;;
73266;SDS011;61495;53.400;7.608;2022-07-22T12:34:39;3.88;;;1.10;;
73266;SDS011;61495;53.400;7.608;2022-07-22T12:37:19;3.55;;;1.30;;
73266;SDS011;61495;53.400;7.608;2022-07-22T12:39:54;2.08;;;0.90;;
73266;SDS011;61495;53.400;7.608;2022-07-22T12:42:47;4.60;;;1.00;;
73266;SDS011;61495;53.400;7.608;2022-07-22T12:45:23;1.75;;;0.63;;
73266;SDS011;61495;53.400;7.608;2022-07-22T12:47:52;2.25;;;0.75;;
73266;SDS011;61495;53.400;7.608;2022-07-22T12:50:34;2.45;;;1.20;;
73266;SDS011;61495;53.400;7.608;2022-07-22T12:53:04;3.47;;;1.50;;
73266;SDS011;61495;53.400;7.608;2022-07-22T12:55:33;5.57;;;1.30;;
73266;SDS011;61495;53.400;7.608;2022-07-22T12:58:01;2.85;;;1.10;;
73266;SDS011;61495;53.400;7.608;2022-07-22T13:00:29;4.75;;;1.20;;
73266;SDS011;61495;53.400;7.608;2022-07-22T13:02:56;3.45;;;1.27;;
73266;SDS011;61495;53.400;7.608;2022-07-22T13:05:22;3.85;;;1.30;;
73266;SDS011;61495;53.400;7.608;2022-07-22T13:07:48;4.57;;;1.38;;
73266;SDS011;61495;53.400;7.608;2022-07-22T13:10:15;3.60;;;1.40;;
73266;SDS011;61495;53.400;7.608;2022-07-22T13:12:42;3.30;;;1.50;;
73266;SDS011;61495;53.400;7.608;2022-07-22T13:15:07;4.18;;;1.20;;
73266;SDS011;61495;53.400;7.608;2022-07-22T13:17:33;4.35;;;1.35;;
73266;SDS011;61495;53.400;7.608;2022-07-22T13:19:59;4.40;;;1.00;;
73266;SDS011;61495;53.400;7.608;2022-07-22T13:22:25;2.72;;;1.20;;
73266;SDS011;61495;53.400;7.608;2022-07-22T13:24:50;2.65;;;1.40;;
73266;SDS011;61495;53.400;7.608;2022-07-22T13:27:16;2.33;;;0.90;;
73266;SDS011;61495;53.400;7.608;2022-07-22T13:29:41;3.05;;;1.00;;
73266;SDS011;61495;53.400;7.608;2022-07-22T13:32:07;3.35;;;1.27;;
73266;SDS011;61495;53.400;7.608;2022-07-22T13:34:33;2.88;;;1.27;;
73266;SDS011;61495;53.400;7.608;2022-07-22T13:36:59;2.55;;;1.02;;
73266;SDS011;61495;53.400;7.608;2022-07-22T13:39:25;3.03;;;1.08;;
73266;SDS011;61495;53.400;7.608;2022-07-22T13:41:50;4.03;;;1.25;;
73266;SDS011;61495;53.400;7.608;2022-07-22T13:44:16;3.95;;;1.10;;
73266;SDS011;61495;53.400;7.608;2022-07-22T13:46:41;3.17;;;1.27;;
73266;SDS011;61495;53.400;7.608;2022-07-22T13:49:07;3.10;;;1.00;;
73266;SDS011;61495;53.400;7.608;2022-07-22T13:51:32;3.88;;;1.70;;
73266;SDS011;61495;53.400;7.608;2022-07-22T13:53:58;4.88;;;1.33;;
73266;SDS011;61495;53.400;7.608;2022-07-22T13:56:23;4.00;;;1.50;;
73266;SDS011;61495;53.400;7.608;2022-07-22T13:58:49;4.03;;;1.15;;
73266;SDS011;61495;53.400;7.608;2022-07-22T14:01:15;3.60;;;1.33;;
73266;SDS011;61495;53.400;7.608;2022-07-22T14:03:41;3.05;;;1.00;;
73266;SDS011;61495;53.400;7.608;2022-07-22T14:06:06;2.67;;;1.27;;
73266;SDS011;61495;53.400;7.608;2022-07-22T14:08:33;4.28;;;1.05;;
73266;SDS011;61495;53.400;7.608;2022-07-22T14:10:59;4.32;;;1.08;;
73266;SDS011;61495;53.400;7.608;2022-07-22T14:13:24;3.00;;;1.10;;
73266;SDS011;61495;53.400;7.608;2022-07-22T14:15:50;6.45;;;1.40;;
73266;SDS011;61495;53.400;7.608;2022-07-22T14:18:15;3.00;;;1.10;;
73266;SDS011;61495;53.400;7.608;2022-07-22T14:20:40;6.38;;;1.60;;
73266;SDS011;61495;53.400;7.608;2022-07-22T14:23:07;3.53;;;1.00;;
73266;SDS011;61495;53.400;7.608;2022-07-22T14:25:37;4.57;;;1.10;;
73266;SDS011;61495;53.400;7.608;2022-07-22T14:28:03;2.95;;;1.10;;
73266;SDS011;61495;53.400;7.608;2022-07-22T14:30:30;3.15;;;1.05;;
73266;SDS011;61495;53.400;7.608;2022-07-22T14:32:55;3.92;;;1.20;;
73266;SDS011;61495;53.400;7.608;2022-07-22T14:35:21;2.65;;;0.90;;
73266;SDS011;61495;53.400;7.608;2022-07-22T14:37:47;5.43;;;1.20;;
73266;SDS011;61495;53.400;7.608;2022-07-22T14:40:12;2.72;;;1.10;;
73266;SDS011;61495;53.400;7.608;2022-07-22T14:42:38;2.53;;;1.10;;
73266;SDS011;61495;53.400;7.608;2022-07-22T14:45:04;2.72;;;1.00;;
73266;SDS011;61495;53.400;7.608;2022-07-22T14:47:31;3.22;;;1.13;;
73266;SDS011;61495;53.400;7.608;2022-07-22T14:49:56;3.17;;;1.10;;
73266;SDS011;61495;53.400;7.608;2022-07-22T14:52:22;2.97;;;1.27;;
73266;SDS011;61495;53.400;7.608;2022-07-22T14:54:47;3.20;;;1.35;;